Time;durP1;ratioP1;P1;durP2;ratioP2;P2;SDS_P1;SDS_P2;PMS_P1;PMS_P2;Temp;Humidity;BMP_temperature;BMP_pressure;BME280_temperature;BME280_humidity;BME280_pressure;Samples;Min_cycle;Max_cycle;Signal;HPM_P1;HPM_P2
2022/01/16 13:09:35;;;;;;;13.05;9.63;;;;;;;;;;5137899;27;20437;-83
2022/01/16 13:12:13;;;;;;;17.52;12.55;;;;;;;;;;5084975;28;20039;-83
2022/01/16 13:14:42;;;;;;;;;;;;;;;;;;5085660;28;20052;-86
2022/01/16 13:17:14;;;;;;;13.10;10.57;;;;;;;;;;5068981;28;19923;-83
2022/01/16 13:19:51;;;;;;;16.60;10.20;;;;;;;;;;5101839;28;20056;-85
2022/01/16 13:22:24;;;;;;;13.63;11.60;;;;;;;;;;5084954;28;20052;-86
2022/01/16 13:25:04;;;;;;;18.00;12.63;;;;;;;;;;5084533;28;20058;-85
2022/01/16 13:27:39;;;;;;;12.70;9.40;;;;;;;;;;5084320;28;20051;-86
2022/01/16 13:30:10;;;;;;;12.43;7.60;;;;;;;;;;5085219;28;20048;-85
2022/01/16 13:32:40;;;;;;;15.75;9.90;;;;;;;;;;5084657;28;20501;-86
2022/01/16 13:35:24;;;;;;;12.43;11.10;;;;;;;;;;5102048;27;20044;-85
2022/01/16 13:37:56;;;;;;;14.20;10.82;;;;;;;;;;5084908;28;20058;-87
2022/01/16 13:40:24;;;;;;;;;;;;;;;;;;5101435;28;20044;-84
2022/01/16 13:45:28;;;;;;;14.73;10.55;;;;;;;;;;5098278;28;20056;-83
2022/01/16 13:48:05;;;;;;;13.07;8.77;;;;;;;;;;5081642;28;20412;-84
2022/01/16 13:50:43;;;;;;;18.83;12.25;;;;;;;;;;5099196;28;20520;-83
2022/01/16 13:53:12;;;;;;;14.25;11.93;;;;;;;;;;5100593;28;20040;-83
2022/01/16 13:56:04;;;;;;;12.35;10.77;;;;;;;;;;5101255;28;20513;-83
2022/01/16 13:58:34;;;;;;;9.50;8.20;;;;;;;;;;5105347;28;20878;-84
2022/01/16 14:01:14;;;;;;;14.02;12.35;;;;;;;;;;5085103;28;20055;-84
2022/01/16 14:03:50;;;;;;;14.07;9.13;;;;;;;;;;5064912;28;20131;-85
2022/01/16 14:06:22;;;;;;;11.05;9.88;;;;;;;;;;5081166;28;20071;-82
2022/01/16 14:08:51;;;;;;;10.80;8.20;;;;;;;;;;5080156;28;20067;-85
2022/01/16 14:11:23;;;;;;;11.73;8.40;;;;;;;;;;5094059;28;20044;-85
2022/01/16 14:13:54;;;;;;;13.20;7.60;;;;;;;;;;5093363;28;20522;-84
2022/01/16 14:16:32;;;;;;;15.80;8.80;;;;;;;;;;5095391;28;20044;-86
2022/01/16 14:24:11;;;;;;;11.95;9.48;;;;;;;;;;5067796;28;20173;-83
2022/01/16 14:26:49;;;;;;;11.02;7.63;;;;;;;;;;5050378;28;20055;-82
2022/01/16 14:29:18;;;;;;;12.98;8.75;;;;;;;;;;5048946;28;20052;-85
2022/01/16 14:31:47;;;;;;;11.85;8.40;;;;;;;;;;5049771;28;20056;-83
2022/01/16 14:34:19;;;;;;;12.70;9.60;;;;;;;;;;5059581;28;20056;-83
2022/01/16 14:36:48;;;;;;;17.20;9.07;;;;;;;;;;5076145;28;20043;-85
2022/01/16 14:39:16;;;;;;;11.38;8.75;;;;;;;;;;5059351;27;20051;-83
2022/01/16 14:41:48;;;;;;;11.50;9.45;;;;;;;;;;5091586;28;20055;-84
2022/01/16 14:44:17;;;;;;;10.30;8.00;;;;;;;;;;5072532;28;20040;-83
2022/01/16 14:46:47;;;;;;;13.65;7.55;;;;;;;;;;5075190;28;20079;-80
2022/01/16 14:49:15;;;;;;;16.45;9.13;;;;;;;;;;5094990;28;20056;-81
2022/01/16 14:51:46;;;;;;;14.43;9.83;;;;;;;;;;5069448;28;21031;-82
2022/01/16 14:54:34;;;;;;;16.65;10.45;;;;;;;;;;5081187;28;20044;-82
2022/01/16 14:57:03;;;;;;;15.63;8.90;;;;;;;;;;5087748;28;20061;-82
2022/01/16 14:59:32;;;;;;;13.43;7.10;;;;;;;;;;5086519;28;20044;-80
2022/01/16 15:02:01;;;;;;;15.23;9.27;;;;;;;;;;5081471;28;20056;-81
2022/01/16 15:04:30;;;;;;;13.23;9.65;;;;;;;;;;5080901;28;20055;-79
2022/01/16 15:06:58;;;;;;;10.93;8.48;;;;;;;;;;5086012;28;20058;-82
2022/01/16 15:09:26;;;;;;;10.63;7.63;;;;;;;;;;5067099;28;20059;-79
2022/01/16 15:11:54;;;;;;;11.93;8.98;;;;;;;;;;5085577;28;20044;-80
2022/01/16 15:14:23;;;;;;;11.70;9.38;;;;;;;;;;5087569;28;20055;-79
2022/01/16 15:17:01;;;;;;;13.60;10.15;;;;;;;;;;5086224;28;20504;-89
2022/01/16 15:19:48;;;;;;;15.68;11.57;;;;;;;;;;5050387;28;20048;-90
2022/01/16 15:22:54;;;;;;;8.50;6.93;;;;;;;;;;5088446;28;20067;-90
2022/01/16 15:25:24;;;;;;;15.55;11.60;;;;;;;;;;5070397;28;20055;-88
2022/01/16 15:27:54;;;;;;;16.52;14.45;;;;;;;;;;5068583;28;20812;-84
2022/01/16 15:30:24;;;;;;;12.60;6.60;;;;;;;;;;5065422;28;20067;-89
2022/01/16 15:32:53;;;;;;;14.85;10.73;;;;;;;;;;5054726;28;20400;-86
2022/01/16 15:35:25;;;;;;;11.50;9.43;;;;;;;;;;5073500;28;20052;-90
2022/01/16 15:37:54;;;;;;;13.02;9.10;;;;;;;;;;5076023;28;20055;-89
2022/01/16 15:40:22;;;;;;;13.18;10.02;;;;;;;;;;5086287;28;20056;-89
2022/01/16 15:42:51;;;;;;;13.25;7.80;;;;;;;;;;5070523;28;20052;-84
2022/01/16 15:45:20;;;;;;;16.65;12.30;;;;;;;;;;5069321;28;20048;-89
2022/01/16 15:47:48;;;;;;;20.73;12.70;;;;;;;;;;5066945;28;20037;-92
2022/01/16 15:50:24;;;;;;;14.02;10.38;;;;;;;;;;5051025;28;20437;-86
2022/01/16 15:52:52;;;;;;;18.20;13.45;;;;;;;;;;5081781;28;20049;-85
2022/01/16 15:55:22;;;;;;;22.40;16.00;;;;;;;;;;5065367;28;20045;-88
2022/01/16 15:57:51;;;;;;;22.15;15.65;;;;;;;;;;5084050;28;20067;-85
2022/01/16 16:00:21;;;;;;;16.17;14.55;;;;;;;;;;5085840;28;20052;-87
2022/01/16 16:02:51;;;;;;;18.45;15.52;;;;;;;;;;5085156;28;20056;-87
2022/01/16 16:05:19;;;;;;;18.95;14.18;;;;;;;;;;5070958;28;20423;-90
2022/01/16 16:07:51;;;;;;;18.13;13.73;;;;;;;;;;5084678;28;20060;-90
2022/01/16 16:10:20;;;;;;;33.28;17.40;;;;;;;;;;5069528;28;20059;-86
2022/01/16 16:12:50;;;;;;;33.65;25.58;;;;;;;;;;5086601;28;20048;-89
2022/01/16 16:15:20;;;;;;;23.67;17.42;;;;;;;;;;5069738;28;20056;-89
2022/01/16 16:17:49;;;;;;;19.50;14.13;;;;;;;;;;5068008;28;20051;-88
2022/01/16 16:20:24;;;;;;;15.25;11.73;;;;;;;;;;5081143;28;20044;-90
2022/01/16 16:23:13;;;;;;;30.65;21.08;;;;;;;;;;5067442;28;20791;-91
2022/01/16 16:25:50;;;;;;;24.00;19.35;;;;;;;;;;5065623;28;20040;-82
2022/01/16 16:28:18;;;;;;;30.48;23.25;;;;;;;;;;5079190;28;20047;-83
2022/01/16 16:30:46;;;;;;;30.13;22.30;;;;;;;;;;5076364;28;20536;-82
2022/01/16 16:33:15;;;;;;;30.05;23.33;;;;;;;;;;5082111;28;20048;-84
2022/01/16 16:35:46;;;;;;;25.58;18.58;;;;;;;;;;5079541;28;20044;-81
2022/01/16 16:38:25;;;;;;;19.83;13.85;;;;;;;;;;5075282;28;20054;-84
2022/01/16 16:40:53;;;;;;;37.67;30.02;;;;;;;;;;5050808;28;20040;-85
2022/01/16 16:43:21;;;;;;;35.38;25.63;;;;;;;;;;5064847;28;20044;-79
2022/01/16 16:45:49;;;;;;;37.95;27.38;;;;;;;;;;5073829;28;20493;-80
2022/01/16 16:48:18;;;;;;;23.77;18.98;;;;;;;;;;5083051;28;20048;-82
2022/01/16 16:50:46;;;;;;;30.27;18.48;;;;;;;;;;5076787;28;20052;-80
2022/01/16 16:53:14;;;;;;;27.38;19.35;;;;;;;;;;5069568;28;20043;-83
2022/01/16 16:56:02;;;;;;;29.65;19.05;;;;;;;;;;5084124;28;20062;-82
2022/01/16 16:58:30;;;;;;;23.95;16.92;;;;;;;;;;5083051;28;20476;-81
2022/01/16 17:00:58;;;;;;;18.40;12.55;;;;;;;;;;5083711;28;20059;-81
2022/01/16 17:03:27;;;;;;;28.42;19.58;;;;;;;;;;5082896;28;20059;-85
2022/01/16 17:05:55;;;;;;;22.25;15.23;;;;;;;;;;5085716;28;20484;-81
2022/01/16 17:08:24;;;;;;;27.50;19.67;;;;;;;;;;5066282;28;20081;-80
2022/01/16 17:10:52;;;;;;;19.35;13.48;;;;;;;;;;5084314;28;20044;-80
2022/01/16 17:13:20;;;;;;;17.27;13.20;;;;;;;;;;5084646;28;20044;-80
2022/01/16 17:15:49;;;;;;;16.73;12.68;;;;;;;;;;5085118;28;20056;-81
2022/01/16 17:18:21;;;;;;;23.95;14.30;;;;;;;;;;5083553;28;20044;-81
2022/01/16 17:20:52;;;;;;;20.88;13.13;;;;;;;;;;5064162;28;20052;-80
2022/01/16 17:23:20;;;;;;;18.15;15.57;;;;;;;;;;5080028;28;20292;-79
2022/01/16 17:25:48;;;;;;;13.93;12.45;;;;;;;;;;5068071;28;20056;-80
2022/01/16 17:28:17;;;;;;;16.83;10.25;;;;;;;;;;5083762;28;20063;-80
2022/01/16 17:30:47;;;;;;;15.50;13.68;;;;;;;;;;5083665;28;20040;-80
2022/01/16 17:33:15;;;;;;;14.30;12.13;;;;;;;;;;5084508;28;20730;-80
2022/01/16 17:35:43;;;;;;;23.98;13.45;;;;;;;;;;5083294;28;20048;-80
2022/01/16 17:38:11;;;;;;;15.25;12.93;;;;;;;;;;5083499;28;20040;-80
2022/01/16 17:40:39;;;;;;;14.82;8.75;;;;;;;;;;5084728;28;20523;-80
2022/01/16 17:43:07;;;;;;;18.58;11.57;;;;;;;;;;5052703;28;20509;-79
2022/01/16 17:45:36;;;;;;;16.55;10.88;;;;;;;;;;5063627;28;20579;-79
2022/01/16 17:48:04;;;;;;;17.45;12.50;;;;;;;;;;5046136;28;20048;-79
2022/01/16 17:50:32;;;;;;;18.98;10.60;;;;;;;;;;5082055;28;20089;-79
2022/01/16 17:53:00;;;;;;;14.32;9.52;;;;;;;;;;5083654;28;20040;-79
2022/01/16 17:55:29;;;;;;;10.52;9.27;;;;;;;;;;5086620;28;20048;-79
2022/01/16 17:57:57;;;;;;;13.77;11.57;;;;;;;;;;5088069;28;20472;-80
2022/01/16 18:00:25;;;;;;;14.07;10.70;;;;;;;;;;5088397;28;20047;-80
2022/01/16 18:02:54;;;;;;;13.68;8.98;;;;;;;;;;5087313;28;20126;-79
2022/01/16 18:05:22;;;;;;;12.23;7.90;;;;;;;;;;5086908;28;20059;-80
2022/01/16 18:07:50;;;;;;;10.32;8.65;;;;;;;;;;5086383;28;20068;-79
2022/01/16 18:10:19;;;;;;;11.57;10.30;;;;;;;;;;5088227;28;20076;-79
2022/01/16 18:12:47;;;;;;;9.30;7.40;;;;;;;;;;5087685;28;20055;-79
2022/01/16 18:15:35;;;;;;;14.38;10.30;;;;;;;;;;5088234;28;20818;-79
2022/01/16 18:18:06;;;;;;;14.40;8.43;;;;;;;;;;5088519;28;20048;-79
2022/01/16 18:20:35;;;;;;;12.88;8.35;;;;;;;;;;5087558;28;20515;-79
2022/01/16 18:23:03;;;;;;;17.13;12.07;;;;;;;;;;5086378;28;20048;-80
2022/01/16 18:25:32;;;;;;;11.63;8.30;;;;;;;;;;5088830;28;20056;-79
2022/01/16 18:28:03;;;;;;;13.15;11.05;;;;;;;;;;5085315;28;20067;-79
2022/01/16 18:30:32;;;;;;;16.73;11.05;;;;;;;;;;5087072;28;20522;-79
2022/01/16 18:33:00;;;;;;;10.68;7.75;;;;;;;;;;5086273;28;20123;-79
2022/01/16 18:35:28;;;;;;;18.85;9.93;;;;;;;;;;5086113;28;20568;-80
2022/01/16 18:37:56;;;;;;;16.80;10.75;;;;;;;;;;5086367;28;20074;-79
2022/01/16 18:40:25;;;;;;;12.52;9.23;;;;;;;;;;5086513;28;20044;-79
2022/01/16 18:42:56;;;;;;;16.23;11.88;;;;;;;;;;5086214;28;20048;-80
2022/01/16 18:45:27;;;;;;;15.70;9.85;;;;;;;;;;5087474;28;20040;-80
2022/01/16 18:48:01;;;;;;;15.63;9.18;;;;;;;;;;5085483;28;20126;-79
2022/01/16 18:50:31;;;;;;;16.10;11.30;;;;;;;;;;5086659;28;20571;-79
2022/01/16 18:52:59;;;;;;;12.77;8.98;;;;;;;;;;5052400;28;20509;-79
2022/01/16 18:55:27;;;;;;;15.55;11.35;;;;;;;;;;5087955;28;20516;-79
2022/01/16 18:57:58;;;;;;;16.75;10.90;;;;;;;;;;5068806;28;20558;-79
2022/01/16 19:00:28;;;;;;;14.98;10.65;;;;;;;;;;5076036;28;20055;-79
2022/01/16 19:02:56;;;;;;;13.18;10.15;;;;;;;;;;5049815;28;20048;-79
2022/01/16 19:05:25;;;;;;;11.50;8.27;;;;;;;;;;5048784;28;20064;-79
2022/01/16 19:07:54;;;;;;;14.50;10.77;;;;;;;;;;5066562;28;20048;-79
2022/01/16 19:10:24;;;;;;;21.90;8.75;;;;;;;;;;5082804;28;20048;-79
2022/01/16 19:12:52;;;;;;;14.98;12.23;;;;;;;;;;5064480;28;20052;-79
2022/01/16 19:15:22;;;;;;;17.33;11.23;;;;;;;;;;5048115;28;20505;-80
2022/01/16 19:17:50;;;;;;;20.15;11.15;;;;;;;;;;5045400;28;20052;-79
2022/01/16 19:20:19;;;;;;;13.68;9.75;;;;;;;;;;5058610;28;20508;-80
2022/01/16 19:22:47;;;;;;;12.68;8.38;;;;;;;;;;5054928;28;20672;-80
2022/01/16 19:25:17;;;;;;;22.35;13.90;;;;;;;;;;5048069;28;20080;-79
2022/01/16 19:27:45;;;;;;;15.88;12.45;;;;;;;;;;5081156;28;20225;-79
2022/01/16 19:30:13;;;;;;;16.25;12.73;;;;;;;;;;5076734;28;20055;-81
2022/01/16 19:32:42;;;;;;;20.83;14.10;;;;;;;;;;5084713;28;20047;-80
2022/01/16 19:35:12;;;;;;;21.77;14.88;;;;;;;;;;5085310;28;20056;-79
2022/01/16 19:37:41;;;;;;;20.52;14.52;;;;;;;;;;5078536;28;20617;-79
2022/01/16 19:40:10;;;;;;;20.75;13.65;;;;;;;;;;5069516;28;20058;-79
2022/01/16 19:42:48;;;;;;;21.65;11.90;;;;;;;;;;5072944;28;20048;-80
2022/01/16 19:45:17;;;;;;;12.60;10.82;;;;;;;;;;5076415;28;20482;-79
2022/01/16 19:47:45;;;;;;;14.35;12.48;;;;;;;;;;5066493;28;20041;-79
2022/01/16 19:50:13;;;;;;;17.45;12.90;;;;;;;;;;5069607;28;20059;-80
2022/01/16 19:52:42;;;;;;;25.38;14.85;;;;;;;;;;5087324;28;20051;-80
2022/01/16 19:55:13;;;;;;;25.45;16.38;;;;;;;;;;5067330;28;20071;-81
2022/01/16 19:57:41;;;;;;;18.02;12.60;;;;;;;;;;5068046;28;20060;-81
2022/01/16 20:00:11;;;;;;;24.52;14.82;;;;;;;;;;5076464;28;20412;-81
2022/01/16 20:02:42;;;;;;;23.58;18.90;;;;;;;;;;5066109;28;20053;-80
2022/01/16 20:05:11;;;;;;;25.40;14.82;;;;;;;;;;5082275;28;20052;-81
2022/01/16 20:07:40;;;;;;;19.70;14.07;;;;;;;;;;5084703;28;20068;-81
2022/01/16 20:10:09;;;;;;;21.50;12.77;;;;;;;;;;5085918;28;20044;-81
2022/01/16 20:12:38;;;;;;;17.73;15.05;;;;;;;;;;5085113;28;20044;-80
2022/01/16 20:15:06;;;;;;;15.85;12.88;;;;;;;;;;5075457;28;20037;-81
2022/01/16 20:17:34;;;;;;;19.90;14.35;;;;;;;;;;5064540;28;20049;-80
2022/01/16 20:20:03;;;;;;;25.20;17.73;;;;;;;;;;5076448;28;20044;-82
2022/01/16 20:22:32;;;;;;;25.38;16.90;;;;;;;;;;5071997;28;20047;-83
2022/01/16 20:25:01;;;;;;;21.25;15.85;;;;;;;;;;5068929;28;20677;-81
2022/01/16 20:27:32;;;;;;;23.77;18.90;;;;;;;;;;5068961;28;20040;-81
2022/01/16 20:30:00;;;;;;;20.63;14.70;;;;;;;;;;5064279;28;20793;-81
2022/01/16 20:32:28;;;;;;;23.55;16.27;;;;;;;;;;5074583;28;20056;-82
2022/01/16 20:34:56;;;;;;;25.00;18.13;;;;;;;;;;5064083;28;20055;-83
2022/01/16 20:37:26;;;;;;;22.45;12.80;;;;;;;;;;5065503;28;20040;-83
2022/01/16 20:39:55;;;;;;;24.77;15.68;;;;;;;;;;5049860;28;20059;-83
2022/01/16 20:42:24;;;;;;;20.27;12.75;;;;;;;;;;5053985;28;20048;-84
2022/01/16 20:44:53;;;;;;;23.27;13.27;;;;;;;;;;5054463;28;20393;-83
2022/01/16 20:47:21;;;;;;;22.73;14.85;;;;;;;;;;5040971;28;20051;-82
2022/01/16 20:49:49;;;;;;;19.17;13.02;;;;;;;;;;5046145;28;20059;-81
2022/01/16 20:52:18;;;;;;;19.38;13.63;;;;;;;;;;5045335;28;20054;-82
2022/01/16 20:54:46;;;;;;;18.15;12.93;;;;;;;;;;5071718;28;20519;-82
2022/01/16 20:57:15;;;;;;;17.30;12.15;;;;;;;;;;5074550;28;20051;-83
2022/01/16 20:59:43;;;;;;;17.92;12.30;;;;;;;;;;5057250;28;20051;-82
2022/01/16 21:02:14;;;;;;;15.25;11.52;;;;;;;;;;5064762;28;20047;-82
2022/01/16 21:04:43;;;;;;;15.60;14.00;;;;;;;;;;5077446;28;20044;-83
2022/01/16 21:07:11;;;;;;;18.98;13.27;;;;;;;;;;5075414;28;20195;-83
2022/01/16 21:09:39;;;;;;;17.73;12.05;;;;;;;;;;5079065;28;20047;-83
2022/01/16 21:12:10;;;;;;;14.05;10.32;;;;;;;;;;5048507;28;20070;-83
2022/01/16 21:14:40;;;;;;;18.73;13.85;;;;;;;;;;5072572;28;20044;-83
2022/01/16 21:17:09;;;;;;;20.63;13.05;;;;;;;;;;5054684;28;20494;-83
2022/01/16 21:19:40;;;;;;;22.25;13.95;;;;;;;;;;5072406;28;20086;-83
2022/01/16 21:22:13;;;;;;;21.33;14.63;;;;;;;;;;5058810;28;20048;-83
2022/01/16 21:24:41;;;;;;;18.58;13.20;;;;;;;;;;5064152;28;20040;-84
2022/01/16 21:27:14;;;;;;;19.85;14.02;;;;;;;;;;5073292;28;20051;-83
2022/01/16 21:29:44;;;;;;;20.23;13.80;;;;;;;;;;5070099;28;20481;-81
2022/01/16 21:32:14;;;;;;;21.80;13.57;;;;;;;;;;5080352;28;20044;-81
2022/01/16 21:34:43;;;;;;;17.05;11.75;;;;;;;;;;5080973;28;20052;-80
2022/01/16 21:37:16;;;;;;;24.83;15.48;;;;;;;;;;5078463;28;20064;-80
2022/01/16 21:39:45;;;;;;;14.60;11.85;;;;;;;;;;5088605;28;20090;-81
2022/01/16 21:42:14;;;;;;;21.15;14.55;;;;;;;;;;5088757;28;20721;-81
2022/01/16 21:44:43;;;;;;;21.27;14.23;;;;;;;;;;5082709;28;20638;-81
2022/01/16 21:47:11;;;;;;;22.60;15.20;;;;;;;;;;5088451;28;20059;-81
2022/01/16 21:49:40;;;;;;;19.52;14.93;;;;;;;;;;5088339;28;20035;-82
2022/01/16 21:52:11;;;;;;;21.45;14.60;;;;;;;;;;5062318;28;20040;-82
2022/01/16 21:54:41;;;;;;;19.35;13.05;;;;;;;;;;5081010;28;20052;-82
2022/01/16 21:57:09;;;;;;;16.88;12.35;;;;;;;;;;5066431;28;20712;-82
2022/01/16 21:59:38;;;;;;;19.20;12.68;;;;;;;;;;5080052;28;20048;-82
2022/01/16 22:02:06;;;;;;;19.83;13.35;;;;;;;;;;5074931;28;20040;-82
2022/01/16 22:04:35;;;;;;;16.25;11.15;;;;;;;;;;5087559;28;20757;-82
2022/01/16 22:07:04;;;;;;;14.25;12.23;;;;;;;;;;5049940;28;20381;-82
2022/01/16 22:09:32;;;;;;;24.38;13.55;;;;;;;;;;5076647;28;20056;-81
2022/01/16 22:12:09;;;;;;;19.58;13.98;;;;;;;;;;5073062;28;20052;-82
2022/01/16 22:14:38;;;;;;;27.17;17.63;;;;;;;;;;5078631;28;20674;-83
2022/01/16 22:17:09;;;;;;;17.30;14.43;;;;;;;;;;5068998;28;20711;-81
2022/01/16 22:19:37;;;;;;;17.70;11.48;;;;;;;;;;5066609;28;20491;-81
2022/01/16 22:22:06;;;;;;;23.15;15.63;;;;;;;;;;5049522;28;20052;-81
2022/01/16 22:24:35;;;;;;;22.42;12.98;;;;;;;;;;5060340;28;20036;-81
2022/01/16 22:27:04;;;;;;;16.40;10.88;;;;;;;;;;5066057;28;20057;-81
2022/01/16 22:29:32;;;;;;;23.92;16.83;;;;;;;;;;5068276;28;20079;-82
2022/01/16 22:32:01;;;;;;;19.77;14.35;;;;;;;;;;5065981;28;20044;-81
2022/01/16 22:34:33;;;;;;;16.70;12.05;;;;;;;;;;5062084;28;20052;-81
2022/01/16 22:37:01;;;;;;;16.65;14.13;;;;;;;;;;5064265;28;20041;-82
2022/01/16 22:39:30;;;;;;;16.42;12.07;;;;;;;;;;5081582;28;20059;-82
2022/01/16 22:42:02;;;;;;;22.13;14.82;;;;;;;;;;5056627;28;20044;-83
2022/01/16 22:44:31;;;;;;;17.42;13.48;;;;;;;;;;5060901;28;20393;-82
2022/01/16 22:46:59;;;;;;;20.85;15.25;;;;;;;;;;5057445;28;20056;-81
2022/01/16 22:49:27;;;;;;;19.70;10.80;;;;;;;;;;5064619;28;20055;-82
2022/01/16 22:51:55;;;;;;;16.27;11.05;;;;;;;;;;5033190;28;20040;-81
2022/01/16 22:54:24;;;;;;;18.85;12.82;;;;;;;;;;5080936;28;20088;-82
2022/01/16 22:56:54;;;;;;;27.95;16.63;;;;;;;;;;5067184;28;20037;-82
2022/01/16 22:59:22;;;;;;;21.13;12.18;;;;;;;;;;5074459;28;20402;-81
2022/01/16 23:01:50;;;;;;;21.23;15.52;;;;;;;;;;5066371;28;20549;-82
2022/01/16 23:04:18;;;;;;;22.23;14.95;;;;;;;;;;5074751;28;20047;-81
2022/01/16 23:06:47;;;;;;;20.08;14.00;;;;;;;;;;5087107;28;20769;-82
2022/01/16 23:09:17;;;;;;;25.40;13.30;;;;;;;;;;5079830;28;20048;-82
2022/01/16 23:11:47;;;;;;;15.95;13.55;;;;;;;;;;5066666;28;20052;-81
2022/01/16 23:14:16;;;;;;;19.67;13.02;;;;;;;;;;5066338;28;20048;-82
2022/01/16 23:16:44;;;;;;;20.50;12.82;;;;;;;;;;5066336;28;20056;-84
2022/01/16 23:19:18;;;;;;;19.48;13.35;;;;;;;;;;5057091;28;20055;-81
2022/01/16 23:21:47;;;;;;;17.98;12.55;;;;;;;;;;5085821;28;20048;-82
2022/01/16 23:24:17;;;;;;;18.98;14.90;;;;;;;;;;5085094;28;20048;-82
2022/01/16 23:26:47;;;;;;;17.10;12.80;;;;;;;;;;5050479;28;20057;-81
2022/01/16 23:29:18;;;;;;;20.33;14.07;;;;;;;;;;5069025;28;20040;-82
2022/01/16 23:31:46;;;;;;;15.82;13.23;;;;;;;;;;5074751;28;20754;-82
2022/01/16 23:34:14;;;;;;;20.35;15.93;;;;;;;;;;5069244;28;20515;-82
2022/01/16 23:36:42;;;;;;;15.32;13.40;;;;;;;;;;5083292;28;20048;-82
2022/01/16 23:39:10;;;;;;;19.58;13.10;;;;;;;;;;5059294;28;20059;-82
2022/01/16 23:41:41;;;;;;;20.25;12.23;;;;;;;;;;5065338;28;20048;-82
2022/01/16 23:44:13;;;;;;;14.77;12.68;;;;;;;;;;5033071;28;20493;-82
2022/01/16 23:46:42;;;;;;;17.77;12.10;;;;;;;;;;5049167;28;20063;-82
2022/01/16 23:49:13;;;;;;;23.33;14.68;;;;;;;;;;5068268;28;20266;-81
2022/01/16 23:51:43;;;;;;;16.55;14.35;;;;;;;;;;5047683;28;20794;-82
2022/01/16 23:54:11;;;;;;;20.40;14.68;;;;;;;;;;5066127;28;20060;-82
2022/01/16 23:56:39;;;;;;;19.30;13.48;;;;;;;;;;5047880;28;20405;-82
2022/01/16 23:59:08;;;;;;;15.52;10.45;;;;;;;;;;5075846;28;20059;-82
